Time;durP1;ratioP1;P1;durP2;ratioP2;P2;SDS_P1;SDS_P2;PMS_P1;PMS_P2;Temp;Humidity;BMP_temperature;BMP_pressure;BME280_temperature;BME280_humidity;BME280_pressure;Samples;Min_cycle;Max_cycle;Signal;HPM_P1;HPM_P2
2022/06/17 00:00:51;;;;;;;6.10;4.03;;;;;;;;;;335083;157;857853;-58
2022/06/17 00:01:53;;;;;;;6.64;4.26;;;;;;;;;;333792;157;865233;-58
2022/06/17 00:02:55;;;;;;;5.33;3.81;;;;;;;;;;335603;156;857260;-59
2022/06/17 00:03:56;;;;;;;7.33;4.24;;;;;;;;;;337345;155;865891;-57
2022/06/17 00:04:58;;;;;;;9.64;4.46;;;;;;;;;;338486;155;864857;-57
2022/06/17 00:06:00;;;;;;;7.10;4.26;;;;;;;;;;336744;156;858285;-58
2022/06/17 00:07:03;;;;;;;5.23;3.86;;;;;;;;;;333143;157;857310;-58
2022/06/17 00:08:05;;;;;;;5.50;4.11;;;;;;;;;;337106;155;857259;-58
2022/06/17 00:09:07;;;;;;;9.88;4.02;;;;;;;;;;337465;155;857339;-58
2022/06/17 00:10:17;;;;;;;6.20;3.85;;;;;;;;;;338850;158;857317;-58
2022/06/17 00:11:20;;;;;;;6.22;3.94;;;;;;;;;;333843;159;857028;-58
2022/06/17 00:12:22;;;;;;;6.84;3.78;;;;;;;;;;334063;157;859094;-58
2022/06/17 00:13:24;;;;;;;6.14;4.35;;;;;;;;;;333589;157;857243;-58
2022/06/17 00:14:32;;;;;;;6.49;3.94;;;;;;;;;;333720;157;865927;-57
2022/06/17 00:15:34;;;;;;;7.87;4.42;;;;;;;;;;334400;157;858401;-58
2022/06/17 00:16:36;;;;;;;5.82;4.15;;;;;;;;;;334456;157;858742;-57
2022/06/17 00:17:37;;;;;;;5.95;4.03;;;;;;;;;;334833;157;863845;-60
2022/06/17 00:18:40;;;;;;;7.75;4.03;;;;;;;;;;334777;157;857526;-60
2022/06/17 00:19:41;;;;;;;6.63;3.89;;;;;;;;;;335356;157;866789;-60
2022/06/17 00:20:43;;;;;;;7.74;4.20;;;;;;;;;;334144;157;857844;-58
2022/06/17 00:21:46;;;;;;;6.09;3.57;;;;;;;;;;335717;157;864864;-57
2022/06/17 00:22:48;;;;;;;8.43;4.22;;;;;;;;;;334786;157;864846;-58
2022/06/17 00:23:49;;;;;;;6.48;4.06;;;;;;;;;;334362;157;857253;-58
2022/06/17 00:30:33;;;;;;;8.58;4.09;;;;;;;14.60;60.00;99945.72;369376;142;879485;-57
2022/06/17 00:31:35;;;;;;;7.16;4.17;;;;;;;14.53;59.80;99949.37;355110;150;857294;-58
2022/06/17 00:32:36;;;;;;;10.79;4.14;;;;;;;14.54;59.64;99945.87;361605;147;857250;-58
2022/06/17 00:33:38;;;;;;;5.68;3.79;;;;;;;14.51;59.58;99947.67;361625;145;865736;-58
2022/06/17 00:34:40;;;;;;;6.15;3.77;;;;;;;14.45;59.86;99946.09;361042;147;865436;-58
2022/06/17 00:35:44;;;;;;;7.22;4.08;;;;;;;14.42;60.03;99941.80;363307;147;861322;-58
2022/06/17 00:36:46;;;;;;;5.59;3.69;;;;;;;14.39;60.20;99933.22;363532;147;864895;-58
2022/06/17 00:37:48;;;;;;;5.47;4.01;;;;;;;14.39;60.11;99939.27;362277;147;859681;-57
2022/06/17 00:38:50;;;;;;;5.96;3.60;;;;;;;14.36;60.16;99935.89;362129;147;864890;-58
2022/06/17 00:39:52;;;;;;;6.00;4.03;;;;;;;14.33;60.23;99939.41;360028;147;864725;-58
2022/06/17 00:40:53;;;;;;;7.77;4.13;;;;;;;14.26;60.38;99933.48;362129;147;866004;-59
2022/06/17 00:42:03;;;;;;;8.17;4.17;;;;;;;14.19;60.55;99933.67;363641;147;860415;-59
2022/06/17 00:43:06;;;;;;;6.84;4.08;;;;;;;14.11;60.62;99933.83;362479;147;859515;-58
2022/06/17 00:44:30;;;;;;;9.51;4.21;;;;;;;14.05;60.88;99927.03;360098;147;859182;-59
2022/06/17 00:45:36;;;;;;;4.79;3.97;;;;;;;13.96;61.27;99953.27;363047;147;859048;-58
2022/06/17 00:46:45;;;;;;;6.74;4.59;;;;;;;13.96;61.27;99953.27;361418;147;857022;-58
2022/06/17 00:47:49;;;;;;;6.44;3.94;;;;;;;;;;363019;147;857759;-58
2022/06/17 00:49:09;;;;;;;7.74;3.88;;;;;;;;;;358922;147;859132;-58
2022/06/17 00:50:13;;;;;;;;;;;;;;;;;;357742;150;858402;-59
2022/06/17 00:51:19;;;;;;;6.42;4.13;;;;;;;;;;356300;150;858955;-58
2022/06/17 00:52:25;;;;;;;7.67;4.11;;;;;;;;;;355051;149;858752;-58
2022/06/17 00:53:29;;;;;;;5.74;3.59;;;;;;;;;;356138;150;857332;-57
2022/06/17 00:54:34;;;;;;;5.97;3.65;;;;;;;;;;355082;149;857397;-59
2022/06/17 00:55:43;;;;;;;6.62;3.70;;;;;;;;;;355529;150;859183;-58
2022/06/17 00:56:45;;;;;;;7.10;4.47;;;;;;;;;;355122;149;859120;-58
2022/06/17 00:57:46;;;;;;;7.58;4.41;;;;;;;;;;353414;150;859496;-57
2022/06/17 00:59:02;;;;;;;6.59;4.01;;;;;;;;;;355842;149;857152;-58
2022/06/17 01:00:06;;;;;;;10.65;4.83;;;;;;;;;;355395;149;864786;-59
2022/06/17 01:01:08;;;;;;;8.16;3.98;;;;;;;;;;354347;149;859890;-59
2022/06/17 01:02:10;;;;;;;7.44;4.35;;;;;;;;;;346581;150;865273;-58
2022/06/17 01:03:16;;;;;;;8.41;4.21;;;;;;;;;;349634;152;864749;-59
2022/06/17 01:04:19;;;;;;;8.56;4.49;;;;;;;;;;354165;149;864717;-58
2022/06/17 01:05:26;;;;;;;9.23;4.28;;;;;;;;;;355959;149;857244;-58
2022/06/17 01:06:30;;;;;;;5.45;4.03;;;;;;;;;;354660;149;857775;-59
2022/06/17 01:07:34;;;;;;;6.21;4.36;;;;;;;;;;354605;150;859331;-59
2022/06/17 01:09:57;;;;;;;6.26;4.21;;;;;;;;;;356401;149;858578;-58
2022/06/17 01:10:59;;;;;;;4.75;3.85;;;;;;;;;;355083;149;858199;-58
2022/06/17 01:12:02;;;;;;;7.89;4.66;;;;;;;;;;355865;150;857427;-58
2022/06/17 01:13:05;;;;;;;8.21;4.51;;;;;;;;;;356330;149;864768;-58
2022/06/17 01:14:06;;;;;;;4.99;3.68;;;;;;;;;;354405;150;857251;-58
2022/06/17 01:15:08;;;;;;;6.44;3.94;;;;;;;;;;355795;149;858977;-58
2022/06/17 01:16:10;;;;;;;6.32;4.26;;;;;;;;;;354485;149;864733;-59
2022/06/17 01:17:12;;;;;;;6.42;4.29;;;;;;;;;;354236;149;857159;-58
2022/06/17 01:18:14;;;;;;;6.13;4.12;;;;;;;;;;354833;149;857307;-59
2022/06/17 01:19:23;;;;;;;6.08;3.84;;;;;;;;;;355044;149;857295;-58
2022/06/17 01:20:25;;;;;;;8.05;3.41;;;;;;;;;;354893;149;864726;-59
2022/06/17 01:21:29;;;;;;;8.32;4.55;;;;;;;;;;355824;150;859107;-59
2022/06/17 01:22:47;;;;;;;7.68;4.36;;;;;;;;;;355468;149;858317;-60
2022/06/17 01:23:48;;;;;;;5.14;3.94;;;;;;;;;;355044;150;857162;-60
2022/06/17 01:24:51;;;;;;;9.91;4.46;;;;;;;;;;355250;149;857268;-57
2022/06/17 01:25:53;;;;;;;6.29;4.47;;;;;;;;;;355925;149;864997;-58
2022/06/17 01:26:54;;;;;;;9.17;5.05;;;;;;;;;;357282;149;857038;-60
2022/06/17 01:27:58;;;;;;;7.66;4.07;;;;;;;;;;355735;149;858840;-60
2022/06/17 01:29:00;;;;;;;7.67;4.25;;;;;;;;;;354804;148;857220;-60
2022/06/17 01:30:02;;;;;;;10.76;4.40;;;;;;;;;;356142;149;858920;-60
2022/06/17 01:31:04;;;;;;;5.17;3.52;;;;;;;;;;356763;149;857222;-60
2022/06/17 01:32:07;;;;;;;6.33;4.21;;;;;;;;;;355839;150;865572;-60
2022/06/17 01:33:13;;;;;;;8.22;4.34;;;;;;;;;;356011;149;857947;-58
2022/06/17 01:34:15;;;;;;;7.57;4.10;;;;;;;;;;354790;149;858131;-57
2022/06/17 01:35:17;;;;;;;6.48;4.17;;;;;;;;;;356706;150;857774;-58
2022/06/17 01:36:21;;;;;;;5.72;4.39;;;;;;;;;;354573;149;857966;-58
2022/06/17 01:37:23;;;;;;;6.01;4.48;;;;;;;;;;354373;150;857636;-58
2022/06/17 01:38:24;;;;;;;10.22;4.58;;;;;;;;;;355678;149;857277;-58
2022/06/17 01:39:26;;;;;;;8.36;4.14;;;;;;;;;;354789;150;857213;-58
2022/06/17 01:40:29;;;;;;;5.37;3.91;;;;;;;;;;357510;149;859689;-58
2022/06/17 01:41:31;;;;;;;11.84;4.44;;;;;;;;;;356651;149;866017;-58
2022/06/17 01:42:33;;;;;;;8.44;4.86;;;;;;;;;;355885;149;857443;-58
2022/06/17 01:43:37;;;;;;;5.81;4.22;;;;;;;;;;356105;149;857356;-59
2022/06/17 01:44:39;;;;;;;7.54;4.33;;;;;;;;;;356016;149;856350;-58
2022/06/17 01:51:04;;;;;;;7.01;4.50;;;;;;;13.86;61.70;99904.03;370885;141;880910;-59
2022/06/17 01:52:15;;;;;;;5.84;4.41;;;;;;;13.81;61.36;99910.20;362769;147;859119;-59
2022/06/17 01:53:19;;;;;;;8.11;4.79;;;;;;;13.85;61.05;99904.05;355178;150;857239;-59
2022/06/17 01:54:29;;;;;;;6.97;4.29;;;;;;;13.93;60.99;99911.70;355509;147;856360;-59
2022/06/17 01:55:41;;;;;;;8.93;4.39;;;;;;;;;;362797;147;859174;-60
2022/06/17 01:56:43;;;;;;;8.17;4.98;;;;;;;;;;354007;150;857938;-58
2022/06/17 01:57:49;;;;;;;8.58;4.22;;;;;;;;;;355600;149;857753;-58
2022/06/17 01:58:52;;;;;;;6.36;4.47;;;;;;;;;;363794;147;858121;-58
2022/06/17 01:59:56;;;;;;;8.26;4.92;;;;;;;;;;364604;147;857137;-58
2022/06/17 02:00:58;;;;;;;9.53;4.53;;;;;;;;;;362869;147;857345;-58
2022/06/17 02:02:00;;;;;;;11.24;5.16;;;;;;;;;;364184;146;858063;-59
2022/06/17 02:03:04;;;;;;;8.75;4.74;;;;;;;;;;363591;147;859170;-57
2022/06/17 02:04:07;;;;;;;11.92;4.66;;;;;;;;;;363144;146;858683;-58
2022/06/17 02:05:09;;;;;;;11.04;5.36;;;;;;;;;;364112;147;860042;-58
2022/06/17 02:06:14;;;;;;;10.48;5.42;;;;;;;;;;362801;147;859261;-58
2022/06/17 02:07:23;;;;;;;10.59;4.88;;;;;;;;;;364991;146;857184;-58
2022/06/17 02:08:25;;;;;;;10.10;5.02;;;;;;;;;;363170;147;858469;-58
2022/06/17 02:09:27;;;;;;;10.36;4.74;;;;;;;;;;362903;146;857834;-58
2022/06/17 02:10:30;;;;;;;8.44;4.86;;;;;;;;;;363418;145;865143;-58
2022/06/17 02:11:33;;;;;;;10.58;4.94;;;;;;;;;;361208;146;865851;-59
2022/06/17 02:12:35;;;;;;;7.05;4.97;;;;;;;;;;363258;145;866732;-58
2022/06/17 02:13:36;;;;;;;10.09;5.36;;;;;;;;;;364058;145;856452;-59
2022/06/17 02:14:38;;;;;;;8.59;4.64;;;;;;;;;;362593;146;866018;-58
2022/06/17 02:15:39;;;;;;;9.52;5.19;;;;;;;;;;362956;146;856777;-58
2022/06/17 02:16:42;;;;;;;8.53;4.52;;;;;;;;;;364750;146;856330;-60
2022/06/17 02:17:44;;;;;;;9.97;4.89;;;;;;;;;;363854;146;865089;-60
2022/06/17 02:18:46;;;;;;;5.59;4.39;;;;;;;;;;364237;145;866607;-60
2022/06/17 02:19:47;;;;;;;8.42;4.63;;;;;;;;;;363479;145;857375;-60
2022/06/17 02:20:49;;;;;;;10.77;5.54;;;;;;;;;;362928;145;857300;-60
2022/06/17 02:21:53;;;;;;;8.01;3.40;;;;;;;;;;363783;146;866642;-59
2022/06/17 02:22:55;;;;;;;8.43;4.65;;;;;;;;;;362599;146;857249;-59
2022/06/17 02:23:56;;;;;;;9.95;4.93;;;;;;;;;;364429;145;857356;-59
2022/06/17 02:24:59;;;;;;;11.53;4.59;;;;;;;;;;364254;145;858528;-59
2022/06/17 02:30:38;;;;;;;11.32;5.02;;;;;;;14.67;61.38;99881.26;371183;141;875182;-60
2022/06/17 02:31:41;;;;;;;8.89;4.93;;;;;;;14.63;61.27;99881.39;363525;146;857229;-59
2022/06/17 02:32:42;;;;;;;16.07;4.94;;;;;;;14.65;61.67;99887.42;363753;145;858963;-59
2022/06/17 02:33:48;;;;;;;10.94;5.08;;;;;;;14.63;62.33;99884.00;363665;147;858944;-59
2022/06/17 02:35:10;;;;;;;11.67;4.94;;;;;;;14.61;62.52;99884.02;355717;149;865823;-59
2022/06/17 02:36:14;;;;;;;9.77;4.67;;;;;;;14.76;62.17;99901.06;364709;145;858950;-58
2022/06/17 02:37:16;;;;;;;9.19;4.70;;;;;;;14.78;61.40;99877.55;362450;147;857349;-58
2022/06/17 02:38:25;;;;;;;8.19;4.77;;;;;;;14.78;61.40;99877.55;363130;145;864884;-58
2022/06/17 02:39:27;;;;;;;14.83;5.18;;;;;;;14.81;61.46;99877.47;361741;147;857186;-58
2022/06/17 02:40:32;;;;;;;9.95;5.05;;;;;;;14.84;61.73;99878.25;364180;145;857246;-58
2022/06/17 02:41:34;;;;;;;8.41;5.09;;;;;;;14.87;61.62;99887.76;363504;147;858526;-59
2022/06/17 02:42:37;;;;;;;6.36;4.05;;;;;;;14.92;61.26;99880.67;363785;145;857023;-59
2022/06/17 02:43:45;;;;;;;8.14;4.59;;;;;;;14.96;61.00;99879.69;362638;147;856784;-59
2022/06/17 02:44:48;;;;;;;7.98;4.81;;;;;;;14.98;60.93;99885.72;362437;145;865908;-59
2022/06/17 02:45:52;;;;;;;8.92;4.70;;;;;;;15.00;60.54;99885.66;362577;147;856215;-59
2022/06/17 02:46:54;;;;;;;7.58;4.95;;;;;;;14.98;60.00;99883.11;363328;145;857774;-59
2022/06/17 02:47:56;;;;;;;7.51;4.69;;;;;;;14.96;60.17;99884.03;363530;147;857196;-59
2022/06/17 02:49:03;;;;;;;10.01;4.45;;;;;;;14.94;60.50;99883.22;361350;145;857235;-58
2022/06/17 02:50:06;;;;;;;8.67;4.78;;;;;;;14.89;61.04;99883.36;356638;147;864565;-59
2022/06/17 02:51:08;;;;;;;9.46;5.17;;;;;;;14.87;61.00;99882.55;356238;147;856433;-59
2022/06/17 02:52:12;;;;;;;9.19;5.15;;;;;;;14.87;60.61;99875.56;358171;147;856160;-61
2022/06/17 02:53:14;;;;;;;8.03;5.41;;;;;;;14.84;61.50;99870.44;350673;151;863823;-59
2022/06/17 02:54:20;;;;;;;12.72;4.89;;;;;;;14.84;61.50;99870.44;347355;150;856831;-60
2022/06/17 02:55:36;;;;;;;9.37;4.88;;;;;;;14.96;61.02;99882.30;350467;150;864385;-60
2022/06/17 02:56:38;;;;;;;12.19;5.36;;;;;;;14.99;61.14;99874.39;357558;147;856411;-60
2022/06/17 02:57:40;;;;;;;10.15;5.11;;;;;;;15.08;60.97;99875.03;360279;147;856494;-60
2022/06/17 02:59:05;;;;;;;10.12;5.19;;;;;;;15.12;60.48;99874.05;357785;147;856232;-59
2022/06/17 03:00:20;;;;;;;9.29;5.56;;;;;;;15.12;60.48;99874.05;358741;147;856434;-59
2022/06/17 03:01:25;;;;;;;9.92;5.19;;;;;;;15.18;60.83;99879.92;357937;148;856177;-59
2022/06/17 03:02:29;;;;;;;7.56;4.85;;;;;;;;;;356538;147;856387;-60
2022/06/17 03:03:30;;;;;;;10.15;5.24;;;;;;;;;;358040;147;856229;-59
2022/06/17 03:04:32;;;;;;;11.94;5.82;;;;;;;;;;358512;147;857030;-58
2022/06/17 03:05:35;;;;;;;9.47;5.03;;;;;;;;;;352662;150;857160;-59
2022/06/17 03:06:37;;;;;;;9.29;5.41;;;;;;;;;;351815;150;864050;-59
2022/06/17 03:07:39;;;;;;;10.21;5.32;;;;;;;;;;357785;147;856325;-59
2022/06/17 03:08:40;;;;;;;9.74;5.23;;;;;;;;;;359897;147;856301;-59
2022/06/17 03:09:43;;;;;;;8.66;5.38;;;;;;;;;;356407;147;856667;-60
2022/06/17 03:10:44;;;;;;;7.52;5.19;;;;;;;;;;359888;147;857208;-63
2022/06/17 03:11:48;;;;;;;8.04;5.25;;;;;;;;;;359353;147;857061;-61
2022/06/17 03:12:50;;;;;;;11.73;5.76;;;;;;;;;;357483;149;856237;-61
2022/06/17 03:13:53;;;;;;;10.52;5.55;;;;;;;;;;357380;147;856377;-62
2022/06/17 03:15:03;;;;;;;9.50;5.14;;;;;;;;;;358513;147;863694;-62
2022/06/17 03:16:05;;;;;;;11.79;5.79;;;;;;;;;;356791;147;856902;-60
2022/06/17 03:17:07;;;;;;;10.67;5.41;;;;;;;;;;358280;148;856215;-64
2022/06/17 03:18:09;;;;;;;9.49;5.69;;;;;;;;;;356670;147;856100;-59
2022/06/17 03:19:10;;;;;;;12.27;5.71;;;;;;;;;;360569;147;864237;-59
2022/06/17 03:20:14;;;;;;;8.47;5.21;;;;;;;;;;355725;147;858958;-59
2022/06/17 03:21:17;;;;;;;8.48;5.32;;;;;;;;;;355897;147;858162;-59
2022/06/17 03:22:19;;;;;;;11.88;5.64;;;;;;;;;;358670;147;857771;-60
2022/06/17 03:23:32;;;;;;;8.91;5.82;;;;;;;;;;358821;147;859036;-58
2022/06/17 03:24:38;;;;;;;7.66;5.49;;;;;;;;;;357253;147;859999;-59
2022/06/17 03:25:43;;;;;;;8.73;4.76;;;;;;;;;;352592;150;857730;-58
2022/06/17 03:26:47;;;;;;;10.48;5.47;;;;;;;;;;356947;147;856832;-58
2022/06/17 03:28:02;;;;;;;7.84;5.07;;;;;;;;;;355910;147;857171;-57
2022/06/17 03:29:03;;;;;;;10.43;5.54;;;;;;;;;;356909;148;858906;-58
2022/06/17 03:30:06;;;;;;;8.01;5.33;;;;;;;;;;356795;148;857949;-58
2022/06/17 03:31:10;;;;;;;10.80;5.00;;;;;;;;;;355688;148;859143;-59
2022/06/17 03:32:13;;;;;;;12.66;5.94;;;;;;;;;;351615;150;859571;-58
2022/06/17 03:33:17;;;;;;;11.38;5.08;;;;;;;;;;353383;148;857300;-58
2022/06/17 03:34:22;;;;;;;7.98;4.72;;;;;;;;;;356019;150;856135;-59
2022/06/17 03:35:25;;;;;;;10.42;5.40;;;;;;;;;;356198;148;857199;-58
2022/06/17 03:36:44;;;;;;;11.95;5.74;;;;;;;;;;355068;148;858841;-58
2022/06/17 03:37:57;;;;;;;10.58;5.64;;;;;;;;;;355390;149;857322;-59
2022/06/17 03:38:59;;;;;;;9.49;5.18;;;;;;;;;;355479;148;857204;-58
2022/06/17 03:40:03;;;;;;;13.45;5.03;;;;;;;;;;356450;148;858616;-58
2022/06/17 03:41:12;;;;;;;9.80;5.35;;;;;;;;;;357968;148;857288;-58
2022/06/17 03:42:16;;;;;;;11.02;5.18;;;;;;;;;;354583;148;857312;-58
2022/06/17 03:43:19;;;;;;;13.72;5.25;;;;;;;;;;359232;148;858857;-58
2022/06/17 03:44:21;;;;;;;9.17;5.64;;;;;;;;;;356442;149;859138;-57
2022/06/17 03:45:25;;;;;;;11.54;5.05;;;;;;;;;;358073;148;859205;-58
2022/06/17 03:46:27;;;;;;;9.76;5.21;;;;;;;;;;354861;148;857215;-58
2022/06/17 03:47:30;;;;;;;10.23;5.26;;;;;;;;;;356470;148;865128;-58
2022/06/17 03:48:40;;;;;;;9.30;4.87;;;;;;;;;;355015;149;857406;-59
2022/06/17 03:49:44;;;;;;;11.00;5.09;;;;;;;;;;350739;149;858743;-59
2022/06/17 03:50:47;;;;;;;13.19;5.07;;;;;;;;;;353220;149;866958;-58
2022/06/17 03:51:50;;;;;;;8.21;5.09;;;;;;;;;;354771;148;865576;-59
2022/06/17 03:52:52;;;;;;;9.71;5.24;;;;;;;;;;356803;148;864944;-59
2022/06/17 03:53:54;;;;;;;9.35;5.39;;;;;;;;;;355803;148;865459;-58
2022/06/17 03:54:55;;;;;;;8.07;5.03;;;;;;;;;;354435;148;857484;-59
2022/06/17 03:55:59;;;;;;;7.89;4.95;;;;;;;;;;355193;148;861774;-60
2022/06/17 03:57:01;;;;;;;8.33;4.90;;;;;;;;;;354145;148;864723;-58
2022/06/17 03:58:03;;;;;;;8.88;4.75;;;;;;;;;;355416;150;864840;-59
2022/06/17 03:59:06;;;;;;;11.07;5.41;;;;;;;;;;342286;154;859289;-59
2022/06/17 04:00:10;;;;;;;6.99;5.26;;;;;;;;;;341192;150;857203;-59
2022/06/17 04:01:13;;;;;;;8.43;5.33;;;;;;;;;;354913;148;857914;-58
2022/06/17 04:02:15;;;;;;;9.58;5.25;;;;;;;;;;355000;148;858936;-58
2022/06/17 04:03:18;;;;;;;8.39;5.88;;;;;;;;;;353340;150;860056;-58
2022/06/17 04:04:25;;;;;;;10.14;5.75;;;;;;;;;;352828;150;857166;-57
2022/06/17 04:05:27;;;;;;;8.63;5.95;;;;;;;;;;354078;150;857467;-58
2022/06/17 04:06:30;;;;;;;8.86;6.35;;;;;;;;;;355714;148;857344;-59
2022/06/17 04:07:32;;;;;;;12.46;6.91;;;;;;;;;;354170;150;857665;-56
2022/06/17 04:08:35;;;;;;;12.32;6.19;;;;;;;;;;354587;149;857367;-57
2022/06/17 04:09:40;;;;;;;14.17;6.08;;;;;;;;;;355839;148;856978;-56
2022/06/17 04:10:42;;;;;;;14.11;6.68;;;;;;;;;;355128;148;856505;-57
2022/06/17 04:11:46;;;;;;;7.91;5.91;;;;;;;;;;355363;148;859376;-58
2022/06/17 04:12:48;;;;;;;10.21;6.12;;;;;;;;;;357669;148;857319;-56
2022/06/17 04:13:50;;;;;;;14.20;6.63;;;;;;;;;;356489;148;862446;-57
2022/06/17 04:14:53;;;;;;;11.25;5.92;;;;;;;;;;355787;148;859775;-58
2022/06/17 04:16:03;;;;;;;16.98;6.28;;;;;;;;;;353847;148;857417;-57
2022/06/17 04:17:06;;;;;;;19.49;6.43;;;;;;;;;;356471;149;857751;-58
2022/06/17 04:18:08;;;;;;;28.51;6.15;;;;;;;;;;354187;150;861886;-57
2022/06/17 04:19:14;;;;;;;18.81;6.35;;;;;;;;;;356302;149;857747;-58
2022/06/17 04:20:33;;;;;;;22.11;6.38;;;;;;;;;;353964;149;866066;-58
2022/06/17 04:21:35;;;;;;;17.82;6.59;;;;;;;;;;354204;150;859072;-56
2022/06/17 04:22:37;;;;;;;14.96;6.41;;;;;;;;;;354354;148;856465;-56
2022/06/17 04:23:38;;;;;;;13.40;6.06;;;;;;;;;;356414;149;857448;-56
2022/06/17 04:24:40;;;;;;;8.76;5.96;;;;;;;;;;356490;149;857388;-57
2022/06/17 04:26:01;;;;;;;11.08;5.77;;;;;;;;;;355502;148;856766;-57
2022/06/17 04:27:03;;;;;;;13.48;6.06;;;;;;;;;;356130;149;857984;-57
2022/06/17 04:28:08;;;;;;;12.23;5.72;;;;;;;;;;352762;150;857941;-58
2022/06/17 04:29:12;;;;;;;13.29;6.06;;;;;;;;;;354937;148;859758;-55
2022/06/17 04:30:20;;;;;;;15.66;6.61;;;;;;;;;;354585;149;857529;-56
2022/06/17 04:31:22;;;;;;;12.42;5.40;;;;;;;;;;355523;147;859178;-57
2022/06/17 04:32:25;;;;;;;11.61;5.21;;;;;;;;;;357740;147;858246;-57
2022/06/17 04:33:31;;;;;;;13.86;5.37;;;;;;;;;;357100;147;857324;-57
2022/06/17 04:34:33;;;;;;;11.12;5.69;;;;;;;;;;358071;147;859669;-58
2022/06/17 04:35:35;;;;;;;14.72;5.15;;;;;;;;;;359176;147;857832;-59
2022/06/17 04:36:44;;;;;;;9.57;5.65;;;;;;;;;;358426;147;857333;-59
2022/06/17 04:37:46;;;;;;;10.10;5.38;;;;;;;;;;357978;147;859704;-59
2022/06/17 04:38:53;;;;;;;12.69;4.53;;;;;;;;;;359449;147;857194;-59
2022/06/17 04:39:56;;;;;;;10.98;5.07;;;;;;;;;;358809;147;859092;-57
2022/06/17 04:40:59;;;;;;;13.92;4.49;;;;;;;;;;354161;150;858969;-56
2022/06/17 04:42:02;;;;;;;13.16;4.79;;;;;;;;;;346419;153;864847;-56
2022/06/17 04:43:05;;;;;;;10.62;4.59;;;;;;;;;;357333;147;856361;-58
2022/06/17 04:44:09;;;;;;;10.88;4.64;;;;;;;;;;357674;147;857446;-58
2022/06/17 04:45:12;;;;;;;10.74;4.39;;;;;;;;;;358546;147;858865;-57
2022/06/17 04:46:16;;;;;;;9.31;4.82;;;;;;;;;;356104;147;856472;-57
2022/06/17 04:50:48;;;;;;;9.00;3.86;;;;;;;18.76;51.94;99844.73;371702;142;881940;-57
2022/06/17 04:51:53;;;;;;;7.06;3.87;;;;;;;18.72;51.46;99858.90;362810;147;859764;-56
2022/06/17 04:52:55;;;;;;;9.60;3.56;;;;;;;18.78;50.85;99849.93;363750;146;864781;-58
2022/06/17 04:53:57;;;;;;;8.03;3.59;;;;;;;18.86;50.69;99857.44;362059;147;860856;-58
2022/06/17 04:54:59;;;;;;;9.15;4.09;;;;;;;;;;362085;146;857155;-57
2022/06/17 04:56:01;;;;;;;9.11;4.09;;;;;;;;;;363564;147;858249;-57
2022/06/17 04:57:03;;;;;;;11.05;4.01;;;;;;;;;;362843;146;865537;-59
2022/06/17 04:58:05;;;;;;;8.31;3.73;;;;;;;;;;363052;147;857261;-57
2022/06/17 04:59:25;;;;;;;9.26;3.87;;;;;;;;;;364322;146;857216;-56
2022/06/17 05:00:26;;;;;;;4.96;3.53;;;;;;;;;;363212;146;864602;-58
2022/06/17 05:01:28;;;;;;;5.48;3.31;;;;;;;;;;362378;147;860241;-57
2022/06/17 05:02:30;;;;;;;4.66;3.74;;;;;;;;;;357541;147;859092;-61
2022/06/17 05:03:32;;;;;;;6.32;3.61;;;;;;;;;;358555;147;864900;-58
2022/06/17 05:04:34;;;;;;;7.61;3.73;;;;;;;;;;362459;146;856619;-58
2022/06/17 05:05:37;;;;;;;5.60;3.99;;;;;;;;;;361065;147;858398;-57
2022/06/17 05:06:39;;;;;;;6.51;3.66;;;;;;;;;;363494;146;857310;-58
2022/06/17 05:07:42;;;;;;;7.28;4.12;;;;;;;;;;364242;147;856390;-58
2022/06/17 05:08:45;;;;;;;5.76;3.70;;;;;;;;;;362096;146;861058;-58
2022/06/17 05:09:52;;;;;;;7.78;3.74;;;;;;;;;;353114;149;858692;-59
2022/06/17 05:11:05;;;;;;;7.54;3.82;;;;;;;;;;354310;149;866487;-58
2022/06/17 05:12:08;;;;;;;8.16;4.26;;;;;;;;;;358101;147;857163;-59
2022/06/17 05:13:18;;;;;;;9.19;4.29;;;;;;;;;;358426;147;857242;-58
2022/06/17 05:14:25;;;;;;;12.42;4.92;;;;;;;;;;359994;147;857654;-58
2022/06/17 05:15:27;;;;;;;6.81;4.78;;;;;;;;;;358818;148;856859;-58
2022/06/17 05:16:28;;;;;;;5.89;4.12;;;;;;;;;;360321;148;857672;-58
2022/06/17 05:17:30;;;;;;;8.84;4.41;;;;;;;;;;358861;148;860347;-58
2022/06/17 05:18:31;;;;;;;9.08;4.73;;;;;;;;;;359789;147;857267;-58
2022/06/17 05:19:33;;;;;;;10.68;4.40;;;;;;;;;;357347;147;857518;-58
2022/06/17 05:20:34;;;;;;;7.77;4.44;;;;;;;;;;360615;147;859488;-58
2022/06/17 05:21:36;;;;;;;7.02;3.99;;;;;;;;;;359323;147;865922;-58
2022/06/17 05:22:45;;;;;;;11.09;4.39;;;;;;;;;;360003;147;863955;-58
2022/06/17 05:23:47;;;;;;;10.27;4.44;;;;;;;;;;360092;148;857211;-57
2022/06/17 05:24:48;;;;;;;8.04;4.47;;;;;;;;;;358566;147;857257;-57
2022/06/17 05:25:50;;;;;;;9.91;4.10;;;;;;;;;;359550;147;865289;-58
2022/06/17 05:26:51;;;;;;;8.23;4.31;;;;;;;;;;359529;147;857293;-58
2022/06/17 05:27:53;;;;;;;9.42;4.41;;;;;;;;;;359603;147;864814;-57
2022/06/17 05:28:55;;;;;;;9.92;4.27;;;;;;;;;;360302;148;857884;-57
2022/06/17 05:29:57;;;;;;;5.85;3.97;;;;;;;;;;360065;147;858262;-57
2022/06/17 05:30:59;;;;;;;8.70;4.09;;;;;;;;;;359780;147;858651;-57
2022/06/17 05:32:01;;;;;;;11.39;4.40;;;;;;;;;;349216;150;859574;-59
2022/06/17 05:33:02;;;;;;;9.72;4.67;;;;;;;;;;348249;150;865644;-59
2022/06/17 05:34:04;;;;;;;11.94;4.48;;;;;;;;;;359650;147;859046;-59
2022/06/17 05:35:06;;;;;;;6.98;3.84;;;;;;;;;;359735;147;860420;-59
2022/06/17 05:36:08;;;;;;;9.09;3.75;;;;;;;;;;346706;153;857275;-58
2022/06/17 05:37:10;;;;;;;8.96;3.63;;;;;;;;;;361466;148;857223;-58
2022/06/17 05:38:12;;;;;;;10.40;4.02;;;;;;;;;;357921;148;857170;-57
2022/06/17 05:39:13;;;;;;;10.07;4.23;;;;;;;;;;359309;149;859033;-57
2022/06/17 05:40:16;;;;;;;8.53;3.55;;;;;;;;;;359722;148;865057;-57
2022/06/17 05:41:20;;;;;;;6.00;3.32;;;;;;;;;;360274;147;857323;-58
2022/06/17 05:42:22;;;;;;;9.18;3.41;;;;;;;;;;357337;147;858114;-57
2022/06/17 05:43:24;;;;;;;7.36;3.12;;;;;;;;;;360020;147;857664;-58
2022/06/17 05:44:25;;;;;;;6.57;3.41;;;;;;;;;;359164;147;857261;-58
2022/06/17 05:45:27;;;;;;;9.96;3.31;;;;;;;;;;358947;147;857299;-59
2022/06/17 05:46:29;;;;;;;7.18;3.08;;;;;;;;;;358214;147;865895;-56
2022/06/17 05:47:31;;;;;;;5.02;3.01;;;;;;;;;;359331;149;864955;-56
2022/06/17 05:48:32;;;;;;;5.16;3.03;;;;;;;;;;358734;149;857373;-56
2022/06/17 05:49:34;;;;;;;9.19;3.13;;;;;;;;;;358273;147;857394;-57
2022/06/17 05:50:36;;;;;;;8.65;3.00;;;;;;;;;;357919;148;865555;-56
2022/06/17 05:51:37;;;;;;;11.97;3.41;;;;;;;;;;358263;148;863891;-55
2022/06/17 05:54:08;;;;;;;6.71;2.84;;;;;;;;;;348318;153;864793;-58
2022/06/17 05:55:10;;;;;;;7.36;2.98;;;;;;;;;;350691;150;858612;-59
2022/06/17 05:56:13;;;;;;;7.78;3.15;;;;;;;;;;350161;150;864964;-58
2022/06/17 05:57:16;;;;;;;5.46;3.37;;;;;;;;;;349550;153;857271;-57
2022/06/17 05:58:17;;;;;;;4.85;3.51;;;;;;;;;;350865;150;858949;-56
2022/06/17 05:59:19;;;;;;;4.53;2.89;;;;;;;;;;349896;150;857323;-58
2022/06/17 06:00:23;;;;;;;8.23;2.89;;;;;;;;;;351093;150;866555;-57
2022/06/17 06:01:24;;;;;;;12.84;3.11;;;;;;;;;;349655;150;865673;-57
2022/06/17 06:02:26;;;;;;;13.34;3.32;;;;;;;;;;347326;152;857819;-58
2022/06/17 06:03:28;;;;;;;6.96;2.89;;;;;;;;;;349985;150;866794;-59
2022/06/17 06:04:31;;;;;;;5.07;2.78;;;;;;;;;;349756;153;864932;-56
2022/06/17 06:05:33;;;;;;;9.50;3.05;;;;;;;;;;344165;153;865030;-57
2022/06/17 06:06:35;;;;;;;5.49;3.25;;;;;;;;;;347796;150;857380;-58
2022/06/17 06:07:36;;;;;;;5.65;2.91;;;;;;;;;;350196;150;857465;-56
2022/06/17 06:08:38;;;;;;;4.23;2.74;;;;;;;;;;347042;150;857380;-58
2022/06/17 06:09:39;;;;;;;5.51;2.79;;;;;;;;;;347581;150;856433;-58
2022/06/17 06:10:43;;;;;;;6.22;2.81;;;;;;;;;;342940;155;857510;-58
2022/06/17 06:11:44;;;;;;;10.25;2.42;;;;;;;;;;347055;150;866171;-58
2022/06/17 06:13:00;;;;;;;4.10;2.34;;;;;;;;;;350339;150;857267;-56
2022/06/17 06:14:01;;;;;;;8.52;2.42;;;;;;;;;;347969;150;857944;-59
2022/06/17 06:15:04;;;;;;;6.69;2.67;;;;;;;;;;350523;153;860435;-59
2022/06/17 06:16:07;;;;;;;3.83;2.30;;;;;;;;;;350713;153;867046;-58
2022/06/17 06:17:16;;;;;;;5.43;2.49;;;;;;;;;;349974;150;864767;-59
2022/06/17 06:18:21;;;;;;;7.97;3.13;;;;;;;;;;349914;150;857479;-57
2022/06/17 06:19:23;;;;;;;4.89;2.39;;;;;;;;;;349658;150;857204;-57
2022/06/17 06:20:24;;;;;;;3.70;2.46;;;;;;;;;;349667;150;859894;-57
2022/06/17 06:21:26;;;;;;;5.47;2.34;;;;;;;;;;350269;150;865981;-58
2022/06/17 06:22:28;;;;;;;2.89;2.21;;;;;;;;;;349260;150;866599;-57